sensor_id;sensor_type;location;lat;lon;timestamp;pressure;altitude;pressure_sealevel;temperature;humidity
22651;BME280;11492;42.646;23.400;2023-04-15T00:01:01;94283.41;;;8.09;60.06
22651;BME280;11492;42.646;23.400;2023-04-15T00:03:27;94277.53;;;8.00;60.34
22651;BME280;11492;42.646;23.400;2023-04-15T00:05:53;94279.47;;;7.78;60.92
22651;BME280;11492;42.646;23.400;2023-04-15T00:08:19;94281.31;;;7.84;60.78
22651;BME280;11492;42.646;23.400;2023-04-15T00:10:44;94294.31;;;7.96;60.21
22651;BME280;11492;42.646;23.400;2023-04-15T00:13:11;94290.41;;;7.86;60.35
22651;BME280;11492;42.646;23.400;2023-04-15T00:15:36;94293.19;;;7.85;60.45
22651;BME280;11492;42.646;23.400;2023-04-15T00:18:02;94294.22;;;7.90;60.19
22651;BME280;11492;42.646;23.400;2023-04-15T00:20:28;94304.78;;;7.95;60.17
22651;BME280;11492;42.646;23.400;2023-04-15T00:22:54;94332.72;;;7.55;61.86
22651;BME280;11492;42.646;23.400;2023-04-15T00:25:19;94328.41;;;7.56;61.40
22651;BME280;11492;42.646;23.400;2023-04-15T00:27:45;94315.63;;;7.76;62.03
22651;BME280;11492;42.646;23.400;2023-04-15T00:30:10;94313.00;;;7.91;61.99
22651;BME280;11492;42.646;23.400;2023-04-15T00:32:37;94316.38;;;8.05;60.95
22651;BME280;11492;42.646;23.400;2023-04-15T00:35:02;94302.81;;;8.11;61.12
22651;BME280;11492;42.646;23.400;2023-04-15T00:37:28;94298.63;;;8.24;61.99
22651;BME280;11492;42.646;23.400;2023-04-15T00:39:53;94292.94;;;8.29;61.31
22651;BME280;11492;42.646;23.400;2023-04-15T00:42:19;94296.47;;;8.28;60.49
22651;BME280;11492;42.646;23.400;2023-04-15T00:44:46;94312.78;;;8.35;61.26
22651;BME280;11492;42.646;23.400;2023-04-15T00:47:11;94318.44;;;8.30;62.03
22651;BME280;11492;42.646;23.400;2023-04-15T00:49:37;94315.19;;;8.22;62.22
22651;BME280;11492;42.646;23.400;2023-04-15T00:52:02;94324.09;;;8.05;62.78
22651;BME280;11492;42.646;23.400;2023-04-15T00:54:28;94330.28;;;8.11;63.42
22651;BME280;11492;42.646;23.400;2023-04-15T00:56:53;94323.38;;;8.11;63.26
22651;BME280;11492;42.646;23.400;2023-04-15T00:59:19;94299.81;;;7.94;63.63
22651;BME280;11492;42.646;23.400;2023-04-15T01:01:45;94321.25;;;8.15;64.32
22651;BME280;11492;42.646;23.400;2023-04-15T01:04:11;94328.69;;;8.10;64.26
22651;BME280;11492;42.646;23.400;2023-04-15T01:06:37;94329.59;;;8.02;65.68
22651;BME280;11492;42.646;23.400;2023-04-15T01:09:02;94330.91;;;7.98;65.36
22651;BME280;11492;42.646;23.400;2023-04-15T01:11:29;94339.09;;;7.88;65.92
22651;BME280;11492;42.646;23.400;2023-04-15T01:13:55;94327.22;;;7.87;65.56
22651;BME280;11492;42.646;23.400;2023-04-15T01:16:22;94322.97;;;7.79;65.98
22651;BME280;11492;42.646;23.400;2023-04-15T01:18:48;94323.69;;;7.73;65.67
22651;BME280;11492;42.646;23.400;2023-04-15T01:21:13;94293.56;;;7.53;66.14
22651;BME280;11492;42.646;23.400;2023-04-15T01:23:39;94321.47;;;7.42;66.98
22651;BME280;11492;42.646;23.400;2023-04-15T01:26:08;94314.22;;;7.31;66.83
22651;BME280;11492;42.646;23.400;2023-04-15T01:28:34;94306.31;;;7.33;67.00
22651;BME280;11492;42.646;23.400;2023-04-15T01:31:07;94318.09;;;7.27;67.51
22651;BME280;11492;42.646;23.400;2023-04-15T01:33:33;94315.69;;;7.12;67.71
22651;BME280;11492;42.646;23.400;2023-04-15T01:35:59;94317.47;;;7.11;67.98
22651;BME280;11492;42.646;23.400;2023-04-15T01:38:25;94327.19;;;7.01;67.40
22651;BME280;11492;42.646;23.400;2023-04-15T01:40:51;94307.72;;;7.07;67.50
22651;BME280;11492;42.646;23.400;2023-04-15T01:43:17;94317.28;;;7.13;67.29
22651;BME280;11492;42.646;23.400;2023-04-15T01:45:43;94322.88;;;7.16;66.78
22651;BME280;11492;42.646;23.400;2023-04-15T01:48:08;94313.13;;;7.12;67.12
22651;BME280;11492;42.646;23.400;2023-04-15T01:50:33;94316.66;;;7.11;65.91
22651;BME280;11492;42.646;23.400;2023-04-15T01:53:01;94323.31;;;7.20;65.51
22651;BME280;11492;42.646;23.400;2023-04-15T01:55:26;94322.94;;;7.08;65.69
22651;BME280;11492;42.646;23.400;2023-04-15T01:57:51;94324.16;;;6.98;66.01
22651;BME280;11492;42.646;23.400;2023-04-15T02:00:17;94320.38;;;6.94;66.51
22651;BME280;11492;42.646;23.400;2023-04-15T02:02:42;94327.25;;;6.94;66.67
22651;BME280;11492;42.646;23.400;2023-04-15T02:05:08;94334.03;;;6.87;66.21
22651;BME280;11492;42.646;23.400;2023-04-15T02:07:35;94332.81;;;6.39;68.23
22651;BME280;11492;42.646;23.400;2023-04-15T02:10:01;94337.59;;;6.42;68.25
22651;BME280;11492;42.646;23.400;2023-04-15T02:12:27;94337.38;;;6.29;69.17
22651;BME280;11492;42.646;23.400;2023-04-15T02:14:53;94341.28;;;6.47;68.90
22651;BME280;11492;42.646;23.400;2023-04-15T02:17:18;94330.75;;;6.56;69.10
22651;BME280;11492;42.646;23.400;2023-04-15T02:19:44;94337.72;;;6.70;68.33
22651;BME280;11492;42.646;23.400;2023-04-15T02:22:09;94324.84;;;6.78;68.42
22651;BME280;11492;42.646;23.400;2023-04-15T02:24:39;94309.09;;;6.81;68.46
22651;BME280;11492;42.646;23.400;2023-04-15T02:27:04;94308.06;;;6.90;67.72
22651;BME280;11492;42.646;23.400;2023-04-15T02:29:30;94315.38;;;6.93;67.60
22651;BME280;11492;42.646;23.400;2023-04-15T02:31:56;94315.25;;;6.94;67.68
22651;BME280;11492;42.646;23.400;2023-04-15T02:34:22;94325.06;;;6.46;69.34
22651;BME280;11492;42.646;23.400;2023-04-15T02:36:47;94316.88;;;6.51;69.58
22651;BME280;11492;42.646;23.400;2023-04-15T02:39:13;94298.53;;;6.40;69.62
22651;BME280;11492;42.646;23.400;2023-04-15T02:41:41;94299.31;;;6.62;69.11
22651;BME280;11492;42.646;23.400;2023-04-15T02:44:08;94300.91;;;6.63;68.98
22651;BME280;11492;42.646;23.400;2023-04-15T02:46:33;94317.47;;;6.75;69.90
22651;BME280;11492;42.646;23.400;2023-04-15T02:48:59;94321.72;;;6.82;68.83
22651;BME280;11492;42.646;23.400;2023-04-15T02:51:25;94316.97;;;6.79;69.52
22651;BME280;11492;42.646;23.400;2023-04-15T02:53:50;94323.22;;;6.77;69.12
22651;BME280;11492;42.646;23.400;2023-04-15T02:56:16;94320.75;;;6.69;69.54
22651;BME280;11492;42.646;23.400;2023-04-15T02:58:42;94328.63;;;6.82;69.90
22651;BME280;11492;42.646;23.400;2023-04-15T03:01:08;94316.16;;;6.79;69.76
22651;BME280;11492;42.646;23.400;2023-04-15T03:03:34;94320.59;;;6.85;69.22
22651;BME280;11492;42.646;23.400;2023-04-15T03:05:59;94331.94;;;6.90;68.13
22651;BME280;11492;42.646;23.400;2023-04-15T03:08:25;94336.44;;;6.88;67.27
22651;BME280;11492;42.646;23.400;2023-04-15T03:10:50;94353.16;;;6.84;66.31
22651;BME280;11492;42.646;23.400;2023-04-15T03:13:18;94345.69;;;6.75;65.84
22651;BME280;11492;42.646;23.400;2023-04-15T03:15:45;94329.03;;;6.71;65.99
22651;BME280;11492;42.646;23.400;2023-04-15T03:18:11;94342.50;;;6.73;65.89
22651;BME280;11492;42.646;23.400;2023-04-15T03:20:37;94359.44;;;6.60;65.89
22651;BME280;11492;42.646;23.400;2023-04-15T03:23:02;94353.91;;;6.48;66.00
22651;BME280;11492;42.646;23.400;2023-04-15T03:25:27;94362.88;;;6.22;66.67
22651;BME280;11492;42.646;23.400;2023-04-15T03:27:53;94353.94;;;6.19;66.27
22651;BME280;11492;42.646;23.400;2023-04-15T03:30:18;94349.97;;;6.08;67.06
22651;BME280;11492;42.646;23.400;2023-04-15T03:32:44;94368.25;;;6.05;67.57
22651;BME280;11492;42.646;23.400;2023-04-15T03:35:09;94377.41;;;6.00;67.63
22651;BME280;11492;42.646;23.400;2023-04-15T03:37:34;94371.16;;;6.02;69.02
22651;BME280;11492;42.646;23.400;2023-04-15T03:40:00;94370.47;;;6.08;69.76
22651;BME280;11492;42.646;23.400;2023-04-15T03:42:26;94359.56;;;6.14;70.69
22651;BME280;11492;42.646;23.400;2023-04-15T03:44:51;94359.13;;;6.11;70.68
22651;BME280;11492;42.646;23.400;2023-04-15T03:47:16;94381.25;;;6.26;70.64
22651;BME280;11492;42.646;23.400;2023-04-15T03:49:42;94376.81;;;6.20;70.23
22651;BME280;11492;42.646;23.400;2023-04-15T03:52:07;94404.31;;;6.26;70.74
22651;BME280;11492;42.646;23.400;2023-04-15T03:54:33;94393.94;;;5.90;71.69
22651;BME280;11492;42.646;23.400;2023-04-15T03:56:58;94390.84;;;6.02;71.38
22651;BME280;11492;42.646;23.400;2023-04-15T03:59:24;94396.16;;;6.00;71.50
22651;BME280;11492;42.646;23.400;2023-04-15T04:01:49;94396.28;;;6.07;71.91
22651;BME280;11492;42.646;23.400;2023-04-15T04:04:15;94394.50;;;6.07;71.49
22651;BME280;11492;42.646;23.400;2023-04-15T04:06:40;94386.91;;;5.92;71.93
22651;BME280;11492;42.646;23.400;2023-04-15T04:09:06;94395.44;;;6.14;72.04
22651;BME280;11492;42.646;23.400;2023-04-15T04:11:31;94396.31;;;6.29;71.52
22651;BME280;11492;42.646;23.400;2023-04-15T04:13:57;94387.34;;;6.25;71.43
22651;BME280;11492;42.646;23.400;2023-04-15T04:16:22;94397.66;;;6.47;70.91
22651;BME280;11492;42.646;23.400;2023-04-15T04:18:48;94396.19;;;6.52;71.58
22651;BME280;11492;42.646;23.400;2023-04-15T04:21:13;94400.97;;;6.55;71.56
22651;BME280;11492;42.646;23.400;2023-04-15T04:23:39;94393.56;;;6.60;71.63
22651;BME280;11492;42.646;23.400;2023-04-15T04:26:04;94403.13;;;6.66;72.17
22651;BME280;11492;42.646;23.400;2023-04-15T04:28:30;94398.69;;;6.60;73.15
22651;BME280;11492;42.646;23.400;2023-04-15T04:30:55;94398.56;;;6.76;72.53
22651;BME280;11492;42.646;23.400;2023-04-15T04:33:21;94397.38;;;6.86;72.38
22651;BME280;11492;42.646;23.400;2023-04-15T04:35:46;94398.75;;;6.96;72.79
22651;BME280;11492;42.646;23.400;2023-04-15T04:38:12;94395.16;;;7.05;72.45
22651;BME280;11492;42.646;23.400;2023-04-15T04:40:37;94405.34;;;7.13;72.36
22651;BME280;11492;42.646;23.400;2023-04-15T04:43:03;94391.81;;;7.19;72.63
22651;BME280;11492;42.646;23.400;2023-04-15T04:45:28;94409.19;;;7.31;72.01
22651;BME280;11492;42.646;23.400;2023-04-15T04:47:54;94405.84;;;7.31;72.22
22651;BME280;11492;42.646;23.400;2023-04-15T04:50:19;94410.53;;;7.42;72.05
22651;BME280;11492;42.646;23.400;2023-04-15T04:52:45;94410.47;;;7.49;71.70
22651;BME280;11492;42.646;23.400;2023-04-15T04:55:10;94399.56;;;7.47;72.30
22651;BME280;11492;42.646;23.400;2023-04-15T04:57:36;94416.41;;;7.64;71.95
22651;BME280;11492;42.646;23.400;2023-04-15T05:00:04;94412.53;;;7.68;71.61
22651;BME280;11492;42.646;23.400;2023-04-15T05:02:30;94422.28;;;7.72;71.50
22651;BME280;11492;42.646;23.400;2023-04-15T05:04:56;94424.75;;;7.80;71.77
22651;BME280;11492;42.646;23.400;2023-04-15T05:07:22;94419.47;;;7.82;71.28
22651;BME280;11492;42.646;23.400;2023-04-15T05:09:47;94438.59;;;7.94;71.36
22651;BME280;11492;42.646;23.400;2023-04-15T05:12:12;94439.78;;;8.05;71.36
22651;BME280;11492;42.646;23.400;2023-04-15T05:14:40;94434.69;;;8.12;70.26
22651;BME280;11492;42.646;23.400;2023-04-15T05:17:06;94451.47;;;8.22;70.81
22651;BME280;11492;42.646;23.400;2023-04-15T05:19:31;94455.72;;;8.29;70.47
22651;BME280;11492;42.646;23.400;2023-04-15T05:21:57;94454.09;;;8.43;69.99
22651;BME280;11492;42.646;23.400;2023-04-15T05:24:22;94448.06;;;8.50;69.94
22651;BME280;11492;42.646;23.400;2023-04-15T05:26:47;94424.41;;;8.40;69.40
22651;BME280;11492;42.646;23.400;2023-04-15T05:29:13;94459.66;;;8.60;68.48
22651;BME280;11492;42.646;23.400;2023-04-15T05:31:38;94464.97;;;8.73;68.23
22651;BME280;11492;42.646;23.400;2023-04-15T05:34:04;94454.56;;;8.81;67.19
22651;BME280;11492;42.646;23.400;2023-04-15T05:36:29;94452.84;;;8.88;66.78
22651;BME280;11492;42.646;23.400;2023-04-15T05:38:56;94448.41;;;8.96;67.19
22651;BME280;11492;42.646;23.400;2023-04-15T05:41:21;94453.59;;;9.02;66.65
22651;BME280;11492;42.646;23.400;2023-04-15T05:43:47;94451.72;;;9.11;66.30
22651;BME280;11492;42.646;23.400;2023-04-15T05:46:12;94433.88;;;9.09;65.90
22651;BME280;11492;42.646;23.400;2023-04-15T05:48:38;94447.66;;;9.22;66.77
22651;BME280;11492;42.646;23.400;2023-04-15T05:51:03;94450.66;;;9.26;65.78
22651;BME280;11492;42.646;23.400;2023-04-15T05:53:29;94451.94;;;9.36;65.66
22651;BME280;11492;42.646;23.400;2023-04-15T05:55:54;94449.84;;;9.46;64.13
22651;BME280;11492;42.646;23.400;2023-04-15T05:58:20;94443.97;;;9.79;70.05
22651;BME280;11492;42.646;23.400;2023-04-15T06:00:45;94457.69;;;10.06;64.82
22651;BME280;11492;42.646;23.400;2023-04-15T06:03:11;94455.41;;;10.24;62.52
22651;BME280;11492;42.646;23.400;2023-04-15T06:05:37;94473.38;;;10.45;61.38
22651;BME280;11492;42.646;23.400;2023-04-15T06:08:02;94463.13;;;10.57;62.11
22651;BME280;11492;42.646;23.400;2023-04-15T06:10:28;94447.63;;;10.57;61.51
22651;BME280;11492;42.646;23.400;2023-04-15T06:12:55;94459.03;;;10.75;61.99
22651;BME280;11492;42.646;23.400;2023-04-15T06:15:20;94465.63;;;10.84;61.63
22651;BME280;11492;42.646;23.400;2023-04-15T06:17:45;94461.31;;;10.97;61.09
22651;BME280;11492;42.646;23.400;2023-04-15T06:20:11;94463.28;;;11.02;60.41
22651;BME280;11492;42.646;23.400;2023-04-15T06:22:37;94459.31;;;10.99;60.56
22651;BME280;11492;42.646;23.400;2023-04-15T06:25:06;94471.25;;;11.07;59.26
22651;BME280;11492;42.646;23.400;2023-04-15T06:27:32;94471.66;;;11.17;57.90
22651;BME280;11492;42.646;23.400;2023-04-15T06:29:58;94478.81;;;11.15;57.35
22651;BME280;11492;42.646;23.400;2023-04-15T06:32:23;94468.13;;;11.30;57.48
22651;BME280;11492;42.646;23.400;2023-04-15T06:34:49;94469.34;;;11.34;57.11
22651;BME280;11492;42.646;23.400;2023-04-15T06:37:14;94477.06;;;11.28;57.04
22651;BME280;11492;42.646;23.400;2023-04-15T06:39:41;94475.31;;;11.35;55.38
22651;BME280;11492;42.646;23.400;2023-04-15T06:42:07;94484.09;;;11.46;55.45
22651;BME280;11492;42.646;23.400;2023-04-15T06:44:33;94476.53;;;11.51;54.99
22651;BME280;11492;42.646;23.400;2023-04-15T06:46:58;94496.47;;;11.76;55.20
22651;BME280;11492;42.646;23.400;2023-04-15T06:49:24;94494.47;;;11.91;53.65
22651;BME280;11492;42.646;23.400;2023-04-15T06:51:49;94498.63;;;12.05;54.29
22651;BME280;11492;42.646;23.400;2023-04-15T06:54:15;94499.84;;;12.02;53.60
22651;BME280;11492;42.646;23.400;2023-04-15T06:56:41;94482.53;;;11.96;53.34
22651;BME280;11492;42.646;23.400;2023-04-15T06:59:07;94492.28;;;12.07;53.21
22651;BME280;11492;42.646;23.400;2023-04-15T07:01:33;94497.66;;;12.12;53.61
22651;BME280;11492;42.646;23.400;2023-04-15T07:03:58;94498.03;;;12.28;53.92
22651;BME280;11492;42.646;23.400;2023-04-15T07:06:23;94502.19;;;12.36;53.32
22651;BME280;11492;42.646;23.400;2023-04-15T07:08:50;94500.00;;;12.45;53.95
22651;BME280;11492;42.646;23.400;2023-04-15T07:11:15;94499.38;;;12.56;52.96
22651;BME280;11492;42.646;23.400;2023-04-15T07:13:41;94505.53;;;12.68;52.91
22651;BME280;11492;42.646;23.400;2023-04-15T07:16:07;94504.50;;;12.82;52.52
22651;BME280;11492;42.646;23.400;2023-04-15T07:18:33;94492.34;;;12.82;52.18
22651;BME280;11492;42.646;23.400;2023-04-15T07:20:58;94487.94;;;12.96;52.04
22651;BME280;11492;42.646;23.400;2023-04-15T07:23:23;94493.44;;;13.12;52.15
22651;BME280;11492;42.646;23.400;2023-04-15T07:25:49;94490.97;;;13.23;52.75
22651;BME280;11492;42.646;23.400;2023-04-15T07:28:15;94491.34;;;13.33;52.55
22651;BME280;11492;42.646;23.400;2023-04-15T07:30:41;94488.97;;;13.31;51.96
22651;BME280;11492;42.646;23.400;2023-04-15T07:33:06;94498.84;;;13.47;51.35
22651;BME280;11492;42.646;23.400;2023-04-15T07:35:32;94502.78;;;13.56;51.24
22651;BME280;11492;42.646;23.400;2023-04-15T07:37:57;94509.47;;;13.70;51.19
22651;BME280;11492;42.646;23.400;2023-04-15T07:40:22;94494.06;;;13.74;49.93
22651;BME280;11492;42.646;23.400;2023-04-15T07:42:48;94499.03;;;13.82;49.92
22651;BME280;11492;42.646;23.400;2023-04-15T07:45:14;94497.72;;;13.91;50.12
22651;BME280;11492;42.646;23.400;2023-04-15T07:47:40;94503.09;;;14.02;49.75
22651;BME280;11492;42.646;23.400;2023-04-15T07:50:07;94495.56;;;13.95;49.23
22651;BME280;11492;42.646;23.400;2023-04-15T07:52:33;94510.59;;;14.10;49.99
22651;BME280;11492;42.646;23.400;2023-04-15T07:55:04;94504.00;;;14.14;49.29
22651;BME280;11492;42.646;23.400;2023-04-15T07:57:31;94513.47;;;14.26;48.92
22651;BME280;11492;42.646;23.400;2023-04-15T07:59:56;94506.75;;;14.19;47.47
22651;BME280;11492;42.646;23.400;2023-04-15T08:02:22;94487.81;;;14.12;48.52
22651;BME280;11492;42.646;23.400;2023-04-15T08:04:47;94519.59;;;14.56;48.35
22651;BME280;11492;42.646;23.400;2023-04-15T08:07:12;94518.97;;;14.78;48.07
22651;BME280;11492;42.646;23.400;2023-04-15T08:09:38;94511.91;;;15.38;46.58
22651;BME280;11492;42.646;23.400;2023-04-15T08:12:03;94491.47;;;16.22;44.46
22651;BME280;11492;42.646;23.400;2023-04-15T08:14:29;94512.53;;;17.60;40.94
22651;BME280;11492;42.646;23.400;2023-04-15T08:16:55;94497.41;;;18.17;39.90
22651;BME280;11492;42.646;23.400;2023-04-15T08:19:20;94500.34;;;18.85;38.60
22651;BME280;11492;42.646;23.400;2023-04-15T08:21:46;94500.91;;;19.50;38.05
22651;BME280;11492;42.646;23.400;2023-04-15T08:24:11;94490.88;;;20.42;35.75
22651;BME280;11492;42.646;23.400;2023-04-15T08:26:37;94491.94;;;21.17;32.80
22651;BME280;11492;42.646;23.400;2023-04-15T08:29:02;94500.16;;;21.25;33.26
22651;BME280;11492;42.646;23.400;2023-04-15T08:31:28;94498.41;;;22.11;31.62
22651;BME280;11492;42.646;23.400;2023-04-15T08:33:56;94492.47;;;21.74;32.55
22651;BME280;11492;42.646;23.400;2023-04-15T08:36:21;94469.63;;;21.85;32.16
22651;BME280;11492;42.646;23.400;2023-04-15T08:38:47;94485.00;;;22.27;31.73
22651;BME280;11492;42.646;23.400;2023-04-15T08:41:23;94497.09;;;22.38;31.09
22651;BME280;11492;42.646;23.400;2023-04-15T08:44:02;94493.16;;;22.94;30.42
22651;BME280;11492;42.646;23.400;2023-04-15T08:46:30;94481.00;;;23.08;29.84
22651;BME280;11492;42.646;23.400;2023-04-15T08:48:57;94501.50;;;23.35;30.57
22651;BME280;11492;42.646;23.400;2023-04-15T08:51:23;94485.13;;;23.38;30.45
22651;BME280;11492;42.646;23.400;2023-04-15T08:53:48;94490.44;;;23.33;30.31
22651;BME280;11492;42.646;23.400;2023-04-15T08:56:14;94474.38;;;23.35;29.29
22651;BME280;11492;42.646;23.400;2023-04-15T08:58:43;94490.44;;;23.33;29.04
22651;BME280;11492;42.646;23.400;2023-04-15T09:01:12;94469.34;;;23.33;29.91
22651;BME280;11492;42.646;23.400;2023-04-15T09:03:38;94477.81;;;23.21;30.17
22651;BME280;11492;42.646;23.400;2023-04-15T09:06:04;94464.84;;;23.39;28.72
22651;BME280;11492;42.646;23.400;2023-04-15T09:08:31;94478.03;;;23.49;27.87
22651;BME280;11492;42.646;23.400;2023-04-15T09:10:56;94476.00;;;23.16;27.79
22651;BME280;11492;42.646;23.400;2023-04-15T09:13:21;94475.00;;;22.93;27.93
22651;BME280;11492;42.646;23.400;2023-04-15T09:15:47;94452.09;;;22.59;27.95
22651;BME280;11492;42.646;23.400;2023-04-15T09:18:13;94448.13;;;22.76;27.52
22651;BME280;11492;42.646;23.400;2023-04-15T09:20:41;94451.78;;;23.04;26.50
22651;BME280;11492;42.646;23.400;2023-04-15T09:23:14;94445.72;;;23.14;27.81
22651;BME280;11492;42.646;23.400;2023-04-15T09:25:40;94441.41;;;23.42;26.90
22651;BME280;11492;42.646;23.400;2023-04-15T09:28:07;94450.50;;;23.69;26.42
22651;BME280;11492;42.646;23.400;2023-04-15T09:30:32;94441.88;;;23.54;26.10
22651;BME280;11492;42.646;23.400;2023-04-15T09:33:00;94441.13;;;23.34;26.05
22651;BME280;11492;42.646;23.400;2023-04-15T09:35:27;94463.63;;;23.02;26.23
22651;BME280;11492;42.646;23.400;2023-04-15T09:38:01;94459.19;;;22.63;27.26
22651;BME280;11492;42.646;23.400;2023-04-15T09:40:31;94458.38;;;22.04;26.95
22651;BME280;11492;42.646;23.400;2023-04-15T09:43:00;94451.72;;;21.77;27.03
22651;BME280;11492;42.646;23.400;2023-04-15T09:45:27;94453.22;;;21.44;28.52
22651;BME280;11492;42.646;23.400;2023-04-15T09:47:52;94450.41;;;21.14;28.13
22651;BME280;11492;42.646;23.400;2023-04-15T09:50:19;94461.53;;;20.85;29.16
22651;BME280;11492;42.646;23.400;2023-04-15T09:52:45;94454.50;;;20.91;28.46
22651;BME280;11492;42.646;23.400;2023-04-15T09:55:12;94454.16;;;21.23;28.83
22651;BME280;11492;42.646;23.400;2023-04-15T09:57:38;94456.03;;;21.27;27.99
22651;BME280;11492;42.646;23.400;2023-04-15T10:00:08;94457.13;;;20.91;28.60
22651;BME280;11492;42.646;23.400;2023-04-15T10:02:36;94466.66;;;21.01;28.84
22651;BME280;11492;42.646;23.400;2023-04-15T10:05:02;94457.47;;;21.09;28.76
22651;BME280;11492;42.646;23.400;2023-04-15T10:07:27;94459.28;;;21.03;28.57
22651;BME280;11492;42.646;23.400;2023-04-15T10:09:54;94456.63;;;20.98;29.62
22651;BME280;11492;42.646;23.400;2023-04-15T10:12:21;94443.81;;;21.07;29.55
22651;BME280;11492;42.646;23.400;2023-04-15T10:15:05;94442.28;;;21.16;29.26
22651;BME280;11492;42.646;23.400;2023-04-15T10:17:32;94437.44;;;21.44;29.94
22651;BME280;11492;42.646;23.400;2023-04-15T10:20:03;94431.41;;;21.48;28.64
22651;BME280;11492;42.646;23.400;2023-04-15T10:22:30;94440.66;;;21.70;27.90
22651;BME280;11492;42.646;23.400;2023-04-15T10:24:55;94420.25;;;22.31;27.34
22651;BME280;11492;42.646;23.400;2023-04-15T10:27:22;94414.34;;;23.02;26.84
22651;BME280;11492;42.646;23.400;2023-04-15T10:29:49;94416.13;;;23.84;26.08
22651;BME280;11492;42.646;23.400;2023-04-15T10:32:16;94418.06;;;24.49;25.62
22651;BME280;11492;42.646;23.400;2023-04-15T10:34:44;94398.50;;;24.50;25.03
22651;BME280;11492;42.646;23.400;2023-04-15T10:37:10;94420.69;;;24.16;25.63
22651;BME280;11492;42.646;23.400;2023-04-15T10:42:12;94418.00;;;24.87;24.84
22651;BME280;11492;42.646;23.400;2023-04-15T10:44:42;94421.03;;;24.99;23.80
22651;BME280;11492;42.646;23.400;2023-04-15T10:47:12;94419.09;;;24.81;24.00
22651;BME280;11492;42.646;23.400;2023-04-15T10:49:54;94412.34;;;24.65;24.24
22651;BME280;11492;42.646;23.400;2023-04-15T10:52:26;94416.50;;;24.76;24.91
22651;BME280;11492;42.646;23.400;2023-04-15T10:55:03;94417.28;;;24.77;24.02
22651;BME280;11492;42.646;23.400;2023-04-15T10:57:40;94411.03;;;24.96;24.20
22651;BME280;11492;42.646;23.400;2023-04-15T11:00:15;94404.28;;;25.08;24.18
22651;BME280;11492;42.646;23.400;2023-04-15T11:05:07;94400.72;;;24.94;24.16
22651;BME280;11492;42.646;23.400;2023-04-15T11:09:57;94401.50;;;25.64;23.01
22651;BME280;11492;42.646;23.400;2023-04-15T11:12:32;94400.69;;;25.45;22.86
22651;BME280;11492;42.646;23.400;2023-04-15T11:14:59;94386.88;;;25.25;23.52
22651;BME280;11492;42.646;23.400;2023-04-15T11:17:27;94406.75;;;25.23;23.48
22651;BME280;11492;42.646;23.400;2023-04-15T11:19:53;94393.88;;;25.16;24.14
22651;BME280;11492;42.646;23.400;2023-04-15T11:22:18;94396.53;;;25.16;23.51
22651;BME280;11492;42.646;23.400;2023-04-15T11:24:47;94390.88;;;24.77;24.03
22651;BME280;11492;42.646;23.400;2023-04-15T11:27:22;94401.94;;;24.51;23.71
22651;BME280;11492;42.646;23.400;2023-04-15T11:29:48;94404.47;;;24.60;23.62
22651;BME280;11492;42.646;23.400;2023-04-15T11:32:13;94406.25;;;24.37;24.26
22651;BME280;11492;42.646;23.400;2023-04-15T11:34:38;94400.19;;;23.99;24.80
22651;BME280;11492;42.646;23.400;2023-04-15T11:37:04;94398.13;;;23.91;25.33
22651;BME280;11492;42.646;23.400;2023-04-15T11:39:31;94400.75;;;24.33;24.58
22651;BME280;11492;42.646;23.400;2023-04-15T11:41:56;94391.59;;;24.21;24.13
22651;BME280;11492;42.646;23.400;2023-04-15T11:44:22;94385.56;;;24.16;24.93
22651;BME280;11492;42.646;23.400;2023-04-15T11:46:47;94393.75;;;24.19;23.96
22651;BME280;11492;42.646;23.400;2023-04-15T11:49:25;94389.63;;;24.03;23.73
22651;BME280;11492;42.646;23.400;2023-04-15T11:51:51;94399.06;;;24.14;23.45
22651;BME280;11492;42.646;23.400;2023-04-15T11:54:19;94405.31;;;23.80;23.49
22651;BME280;11492;42.646;23.400;2023-04-15T11:56:49;94403.59;;;22.99;24.02
22651;BME280;11492;42.646;23.400;2023-04-15T11:59:15;94398.50;;;23.12;24.45
22651;BME280;11492;42.646;23.400;2023-04-15T12:01:41;94393.00;;;23.14;24.68
22651;BME280;11492;42.646;23.400;2023-04-15T12:04:17;94380.19;;;22.83;25.31
22651;BME280;11492;42.646;23.400;2023-04-15T12:06:47;94379.16;;;22.79;24.42
22651;BME280;11492;42.646;23.400;2023-04-15T12:09:13;94379.16;;;22.74;24.76
22651;BME280;11492;42.646;23.400;2023-04-15T12:14:10;94391.00;;;22.62;24.56
22651;BME280;11492;42.646;23.400;2023-04-15T12:16:41;94386.78;;;22.61;24.68
22651;BME280;11492;42.646;23.400;2023-04-15T12:19:12;94378.66;;;22.72;25.23
22651;BME280;11492;42.646;23.400;2023-04-15T12:21:40;94374.19;;;22.24;24.54
22651;BME280;11492;42.646;23.400;2023-04-15T12:24:08;94368.13;;;22.38;25.02
22651;BME280;11492;42.646;23.400;2023-04-15T12:26:51;94385.47;;;22.58;24.55
22651;BME280;11492;42.646;23.400;2023-04-15T12:29:18;94375.44;;;22.65;24.97
22651;BME280;11492;42.646;23.400;2023-04-15T12:31:47;94380.09;;;23.07;24.40
22651;BME280;11492;42.646;23.400;2023-04-15T12:34:14;94379.59;;;23.05;24.79
22651;BME280;11492;42.646;23.400;2023-04-15T12:36:40;94394.91;;;22.99;25.00
22651;BME280;11492;42.646;23.400;2023-04-15T12:39:05;94390.72;;;22.83;24.58
22651;BME280;11492;42.646;23.400;2023-04-15T12:41:31;94382.06;;;21.99;22.89
22651;BME280;11492;42.646;23.400;2023-04-15T12:43:57;94404.06;;;21.44;23.11
22651;BME280;11492;42.646;23.400;2023-04-15T12:46:23;94403.66;;;21.16;23.55
22651;BME280;11492;42.646;23.400;2023-04-15T12:48:49;94399.56;;;20.79;23.87
22651;BME280;11492;42.646;23.400;2023-04-15T12:51:16;94395.47;;;21.03;23.77
22651;BME280;11492;42.646;23.400;2023-04-15T12:53:41;94390.50;;;21.06;23.69
22651;BME280;11492;42.646;23.400;2023-04-15T12:56:07;94384.94;;;20.93;23.97
22651;BME280;11492;42.646;23.400;2023-04-15T12:58:32;94380.03;;;21.21;23.93
22651;BME280;11492;42.646;23.400;2023-04-15T13:00:58;94400.31;;;21.25;23.66